Time;durP1;ratioP1;P1;durP2;ratioP2;P2;SDS_P1;SDS_P2;PMS_P1;PMS_P2;Temp;Humidity;BMP_temperature;BMP_pressure;BME280_temperature;BME280_humidity;BME280_pressure;Samples;Min_cycle;Max_cycle;Signal;HPM_P1;HPM_P2
2024/01/08 00:01:59;;;;;;;1.10;1.10;;;;;;;;;;8230402;28;20145;-57
2024/01/08 00:05:59;;;;;;;1.23;1.13;;;;;;;;;;8236786;28;20033;-58
2024/01/08 00:09:59;;;;;;;1.88;1.30;;;;;;;;;;8230028;28;20030;-58
2024/01/08 00:13:59;;;;;;;1.38;1.17;;;;;;;;;;8232199;28;20036;-58
2024/01/08 00:17:59;;;;;;;1.08;0.98;;;;;;;;;;8229115;28;20081;-58
2024/01/08 00:21:59;;;;;;;1.30;1.17;;;;;;;;;;8216682;28;20054;-58
2024/01/08 00:26:00;;;;;;;1.80;1.15;;;;;;;;;;8211739;28;20325;-58
2024/01/08 00:30:00;;;;;;;0.90;0.90;;;;;;;;;;8209475;28;20030;-59
2024/01/08 00:34:00;;;;;;;1.63;1.10;;;;;;;;;;8208853;28;20034;-58
2024/01/08 00:38:00;;;;;;;1.30;1.20;;;;;;;;;;8211718;28;20503;-57
2024/01/08 00:42:01;;;;;;;1.30;1.00;;;;;;;;;;8210021;28;20026;-58
2024/01/08 00:46:01;;;;;;;2.38;1.17;;;;;;;;;;8225035;28;20149;-57
2024/01/08 00:50:01;;;;;;;1.10;1.10;;;;;;;;;;8211513;28;20056;-59
2024/01/08 00:54:02;;;;;;;1.77;0.88;;;;;;;;;;8209521;28;20076;-59
2024/01/08 00:58:02;;;;;;;0.77;0.77;;;;;;;;;;8213113;28;20053;-58
2024/01/08 01:02:02;;;;;;;2.53;1.23;;;;;;;;;;8210440;28;20045;-58
2024/01/08 01:06:03;;;;;;;1.70;1.00;;;;;;;;;;8217614;28;20030;-57
2024/01/08 01:10:03;;;;;;;1.10;0.82;;;;;;;;;;8217093;28;20027;-58
2024/01/08 01:14:03;;;;;;;1.42;1.02;;;;;;;;;;8215918;28;20112;-58
2024/01/08 01:18:04;;;;;;;1.10;1.00;;;;;;;;;;8214670;28;20037;-57
2024/01/08 01:22:04;;;;;;;0.85;0.85;;;;;;;;;;8213488;28;20501;-58
2024/01/08 01:26:04;;;;;;;1.52;1.02;;;;;;;;;;8210031;28;20066;-58
2024/01/08 01:30:04;;;;;;;0.95;0.95;;;;;;;;;;8215152;28;20026;-56
2024/01/08 01:34:06;;;;;;;1.15;0.90;;;;;;;;;;8225340;28;20454;-57
2024/01/08 01:38:06;;;;;;;0.80;0.80;;;;;;;;;;8223064;28;20243;-57
2024/01/08 01:42:07;;;;;;;0.90;0.90;;;;;;;;;;8219529;28;20041;-57
2024/01/08 01:46:16;;;;;;;1.25;0.88;;;;;;;;;;8212912;28;20041;-57
2024/01/08 01:50:16;;;;;;;3.22;0.90;;;;;;;;;;8214742;28;20054;-58
2024/01/08 01:54:18;;;;;;;1.77;0.98;;;;;;;;;;8229229;28;20029;-57
2024/01/08 01:58:18;;;;;;;1.17;1.08;;;;;;;;;;8216417;28;20025;-57
2024/01/08 02:02:19;;;;;;;1.08;0.82;;;;;;;;;;8221532;28;20042;-57
2024/01/08 02:06:21;;;;;;;1.20;1.10;;;;;;;;;;8222763;28;20049;-57
2024/01/08 02:10:21;;;;;;;0.95;0.90;;;;;;;;;;8223124;28;20060;-58
2024/01/08 02:14:21;;;;;;;0.80;0.80;;;;;;;;;;8226737;28;20517;-58
2024/01/08 02:18:22;;;;;;;0.90;0.90;;;;;;;;;;8226377;28;20072;-58
2024/01/08 02:22:22;;;;;;;1.73;1.10;;;;;;;;;;8231032;28;20281;-58
2024/01/08 02:26:23;;;;;;;1.08;1.00;;;;;;;;;;8224443;28;20027;-58
2024/01/08 02:30:23;;;;;;;1.08;1.02;;;;;;;;;;8224966;28;20050;-58
2024/01/08 02:34:23;;;;;;;1.00;1.00;;;;;;;;;;8222862;28;20019;-59
2024/01/08 02:38:24;;;;;;;1.05;0.95;;;;;;;;;;8223679;28;20117;-59
2024/01/08 02:42:24;;;;;;;0.90;0.90;;;;;;;;;;8226388;28;20045;-59
2024/01/08 02:46:24;;;;;;;0.90;0.90;;;;;;;;;;8226676;28;20494;-58
2024/01/08 02:50:25;;;;;;;1.20;1.10;;;;;;;;;;8219675;28;20049;-57
2024/01/08 02:54:25;;;;;;;2.15;1.10;;;;;;;;;;8212603;28;20432;-58
2024/01/08 02:58:26;;;;;;;1.35;1.23;;;;;;;;;;8211189;28;20765;-59
2024/01/08 03:02:28;;;;;;;1.60;1.30;;;;;;;;;;8213239;28;20042;-59
2024/01/08 03:06:28;;;;;;;1.00;1.00;;;;;;;;;;8209944;28;20050;-59
2024/01/08 03:10:28;;;;;;;1.25;1.10;;;;;;;;;;8213478;28;20464;-59
2024/01/08 03:14:28;;;;;;;1.27;1.15;;;;;;;;;;8212096;28;20114;-59
2024/01/08 03:18:28;;;;;;;1.58;1.15;;;;;;;;;;8214757;28;20042;-59
2024/01/08 03:22:29;;;;;;;0.88;0.88;;;;;;;;;;8218340;28;20029;-58
2024/01/08 03:26:29;;;;;;;0.90;0.90;;;;;;;;;;8218812;28;20019;-59
2024/01/08 03:30:29;;;;;;;1.00;0.90;;;;;;;;;;8217442;28;20107;-59
2024/01/08 03:34:30;;;;;;;1.20;1.10;;;;;;;;;;8216403;28;20025;-59
2024/01/08 03:38:30;;;;;;;2.10;1.23;;;;;;;;;;8217334;28;20477;-58
2024/01/08 03:42:30;;;;;;;1.88;1.20;;;;;;;;;;8215901;28;20033;-58
2024/01/08 03:46:31;;;;;;;1.50;1.40;;;;;;;;;;8219533;28;20035;-58
2024/01/08 03:50:33;;;;;;;1.73;1.40;;;;;;;;;;8222702;28;20026;-58
2024/01/08 03:54:33;;;;;;;2.90;1.50;;;;;;;;;;8220419;28;20060;-58
2024/01/08 03:58:33;;;;;;;1.75;1.38;;;;;;;;;;8230688;28;20026;-58
2024/01/08 04:02:33;;;;;;;2.22;1.50;;;;;;;;;;8223154;28;20068;-58
2024/01/08 04:06:33;;;;;;;1.50;1.23;;;;;;;;;;8215855;28;20026;-59
2024/01/08 04:10:33;;;;;;;2.67;1.42;;;;;;;;;;8223864;28;20041;-58
2024/01/08 04:14:34;;;;;;;1.65;1.45;;;;;;;;;;8226187;28;20129;-58
2024/01/08 04:18:34;;;;;;;2.28;1.60;;;;;;;;;;8226883;28;20467;-58
2024/01/08 04:22:34;;;;;;;4.25;1.50;;;;;;;;;;8232334;28;20034;-58
2024/01/08 04:26:35;;;;;;;2.17;1.60;;;;;;;;;;8224433;28;20120;-58
2024/01/08 04:30:35;;;;;;;1.77;1.40;;;;;;;;;;8226650;28;20035;-58
2024/01/08 04:34:36;;;;;;;1.67;1.40;;;;;;;;;;8227923;28;20060;-58
2024/01/08 04:38:37;;;;;;;2.63;1.58;;;;;;;;;;8227883;28;20273;-58
2024/01/08 04:42:37;;;;;;;1.50;1.40;;;;;;;;;;8221904;28;20606;-58
2024/01/08 04:46:37;;;;;;;1.53;1.43;;;;;;;;;;8222715;28;20275;-57
2024/01/08 04:50:37;;;;;;;2.85;1.40;;;;;;;;;;8223132;28;20281;-56
2024/01/08 04:54:40;;;;;;;2.55;1.90;;;;;;;;;;8225396;28;20033;-56
2024/01/08 04:58:40;;;;;;;1.70;1.60;;;;;;;;;;8229770;28;20398;-58
2024/01/08 05:02:41;;;;;;;1.30;1.20;;;;;;;;;;8229141;28;20065;-58
2024/01/08 05:06:42;;;;;;;1.75;1.50;;;;;;;;;;8213510;28;20474;-57
2024/01/08 05:10:42;;;;;;;1.83;1.48;;;;;;;;;;8215369;28;20048;-57
2024/01/08 05:14:42;;;;;;;1.88;1.40;;;;;;;;;;8216424;28;20061;-57
2024/01/08 05:18:42;;;;;;;1.70;1.35;;;;;;;;;;8212637;28;20041;-56
2024/01/08 05:22:43;;;;;;;1.65;1.40;;;;;;;;;;8214861;28;20026;-57
2024/01/08 05:26:43;;;;;;;1.40;1.30;;;;;;;;;;8213504;28;20454;-58
2024/01/08 05:30:43;;;;;;;1.60;1.50;;;;;;;;;;8212046;28;20699;-59
2024/01/08 05:34:43;;;;;;;1.55;1.40;;;;;;;;;;8214379;28;20109;-58
2024/01/08 05:38:44;;;;;;;1.53;1.43;;;;;;;;;;8213921;28;20026;-58
2024/01/08 05:42:45;;;;;;;2.35;1.55;;;;;;;;;;8214345;28;20287;-59
2024/01/08 05:46:45;;;;;;;1.92;1.52;;;;;;;;;;8212186;28;20042;-58
2024/01/08 05:50:48;;;;;;;1.55;1.40;;;;;;;;;;8209233;28;20036;-60
2024/01/08 05:54:49;;;;;;;1.58;1.40;;;;;;;;;;8221568;28;20060;-59
2024/01/08 05:58:49;;;;;;;1.65;1.50;;;;;;;;;;8216119;28;20060;-58
2024/01/08 06:02:49;;;;;;;1.30;1.20;;;;;;;;;;8215538;28;20370;-58
2024/01/08 06:06:51;;;;;;;2.25;1.13;;;;;;;;;;8213894;28;20469;-58
2024/01/08 06:10:51;;;;;;;1.98;1.60;;;;;;;;;;8210019;28;20835;-60
2024/01/08 06:14:52;;;;;;;1.42;1.33;;;;;;;;;;8210199;28;20651;-58
2024/01/08 06:18:52;;;;;;;2.03;1.45;;;;;;;;;;8208515;28;22609;-57
2024/01/08 06:22:52;;;;;;;2.22;1.73;;;;;;;;;;8210803;28;20030;-59
2024/01/08 06:26:52;;;;;;;1.48;1.38;;;;;;;;;;8213624;28;20030;-58
2024/01/08 06:30:53;;;;;;;2.33;1.25;;;;;;;;;;8209225;28;20525;-58
2024/01/08 06:34:53;;;;;;;1.50;1.40;;;;;;;;;;8214980;28;20143;-57
2024/01/08 06:38:53;;;;;;;1.77;1.30;;;;;;;;;;8212491;28;20272;-58
2024/01/08 06:42:53;;;;;;;1.42;1.30;;;;;;;;;;8214506;28;20377;-59
2024/01/08 06:46:54;;;;;;;1.95;1.75;;;;;;;;;;8215943;28;20049;-58
2024/01/08 06:50:54;;;;;;;1.45;1.35;;;;;;;;;;8217722;28;20604;-59
2024/01/08 06:54:54;;;;;;;1.73;1.50;;;;;;;;;;8215078;28;20184;-56
2024/01/08 06:58:54;;;;;;;1.48;1.38;;;;;;;;;;8223131;28;20150;-59
2024/01/08 07:02:55;;;;;;;1.85;1.45;;;;;;;;;;8221293;28;20073;-59
2024/01/08 07:06:55;;;;;;;1.85;1.42;;;;;;;;;;8219819;28;20030;-57
2024/01/08 07:10:55;;;;;;;1.90;1.70;;;;;;;;;;8224182;28;22077;-59
2024/01/08 07:14:55;;;;;;;1.50;1.40;;;;;;;;;;8223793;28;20030;-58
2024/01/08 07:18:55;;;;;;;1.80;1.50;;;;;;;;;;8219016;28;20116;-59
2024/01/08 07:22:56;;;;;;;1.85;1.40;;;;;;;;;;8228772;28;20021;-58
2024/01/08 07:26:57;;;;;;;2.00;1.50;;;;;;;;;;8221984;28;20031;-58
2024/01/08 07:30:57;;;;;;;1.40;1.30;;;;;;;;;;8213807;28;20683;-57
2024/01/08 07:34:57;;;;;;;2.05;1.85;;;;;;;;;;8230618;28;20055;-58
2024/01/08 07:38:57;;;;;;;2.80;1.80;;;;;;;;;;8228360;28;20415;-58
2024/01/08 07:42:57;;;;;;;2.00;1.80;;;;;;;;;;8225731;28;20030;-57
2024/01/08 07:46:58;;;;;;;2.17;1.92;;;;;;;;;;8218759;28;20048;-56
2024/01/08 07:50:58;;;;;;;1.88;1.70;;;;;;;;;;8220402;28;20025;-58
2024/01/08 07:54:58;;;;;;;2.78;2.00;;;;;;;;;;8223405;28;20298;-57
2024/01/08 07:58:59;;;;;;;2.60;1.70;;;;;;;;;;8221743;28;20052;-58
2024/01/08 08:02:59;;;;;;;2.13;1.92;;;;;;;;;;8218855;28;20042;-57
2024/01/08 08:06:59;;;;;;;1.85;1.73;;;;;;;;;;8219175;28;20030;-58
2024/01/08 08:11:00;;;;;;;4.75;2.13;;;;;;;;;;8216415;28;20088;-57
2024/01/08 08:15:00;;;;;;;2.58;2.10;;;;;;;;;;8218252;28;20022;-58
2024/01/08 08:19:02;;;;;;;3.58;2.10;;;;;;;;;;8220392;28;20054;-58
2024/01/08 08:23:03;;;;;;;2.83;2.10;;;;;;;;;;8214039;28;20821;-57
2024/01/08 08:27:03;;;;;;;3.40;2.37;;;;;;;;;;8218172;28;20455;-57
2024/01/08 08:31:03;;;;;;;4.00;2.30;;;;;;;;;;8214533;28;20288;-57
2024/01/08 08:35:04;;;;;;;2.95;2.42;;;;;;;;;;8217608;28;20479;-58
2024/01/08 08:39:05;;;;;;;3.75;2.00;;;;;;;;;;8218720;28;20571;-57
2024/01/08 08:43:05;;;;;;;3.75;2.05;;;;;;;;;;8218329;28;20034;-58
2024/01/08 08:47:06;;;;;;;2.67;2.20;;;;;;;;;;8219244;28;20042;-58
2024/01/08 08:51:06;;;;;;;2.60;2.03;;;;;;;;;;8218497;28;20117;-59
2024/01/08 08:55:06;;;;;;;2.25;1.90;;;;;;;;;;8225872;28;20053;-57
2024/01/08 08:59:06;;;;;;;2.47;1.98;;;;;;;;;;8224941;28;20487;-58
2024/01/08 09:03:07;;;;;;;2.65;2.00;;;;;;;;;;8222513;28;20382;-59
2024/01/08 09:07:07;;;;;;;3.47;2.20;;;;;;;;;;8234466;28;20550;-58
2024/01/08 09:11:08;;;;;;;2.47;2.08;;;;;;;;;;8226760;28;20296;-59
2024/01/08 09:15:08;;;;;;;2.03;1.83;;;;;;;;;;8224083;28;20018;-57
2024/01/08 09:19:08;;;;;;;2.17;1.90;;;;;;;;;;8223017;28;20120;-58
2024/01/08 09:23:08;;;;;;;2.40;2.00;;;;;;;;;;8219115;28;20108;-59
2024/01/08 09:27:09;;;;;;;2.83;1.88;;;;;;;;;;8220805;28;20041;-59
2024/01/08 09:31:09;;;;;;;2.55;2.00;;;;;;;;;;8218253;28;20065;-58
2024/01/08 09:35:09;;;;;;;2.80;2.25;;;;;;;;;;8222444;28;20026;-59
2024/01/08 09:39:11;;;;;;;2.35;2.00;;;;;;;;;;8224367;28;20431;-59
2024/01/08 09:43:14;;;;;;;2.13;1.92;;;;;;;;;;8223764;28;20062;-57
2024/01/08 09:47:15;;;;;;;3.63;1.90;;;;;;;;;;8217096;28;20538;-58
2024/01/08 09:51:15;;;;;;;2.00;1.80;;;;;;;;;;8216161;28;21033;-57
2024/01/08 09:55:16;;;;;;;2.60;2.13;;;;;;;;;;8215254;28;20462;-59
2024/01/08 09:59:16;;;;;;;2.90;2.25;;;;;;;;;;8218384;28;20030;-59
2024/01/08 10:03:16;;;;;;;3.60;2.50;;;;;;;;;;8218473;28;20049;-59
2024/01/08 10:07:17;;;;;;;2.78;2.20;;;;;;;;;;8219417;28;20037;-58
2024/01/08 10:11:18;;;;;;;2.60;2.00;;;;;;;;;;8216878;28;20041;-58
2024/01/08 10:15:18;;;;;;;2.72;2.40;;;;;;;;;;8214664;28;20068;-58
2024/01/08 10:19:25;;;;;;;3.78;2.30;;;;;;;;;;8211370;28;20427;-59
2024/01/08 10:23:25;;;;;;;4.32;2.50;;;;;;;;;;8216821;28;20030;-58
2024/01/08 10:27:25;;;;;;;3.05;2.30;;;;;;;;;;8214575;28;20092;-59
2024/01/08 10:31:25;;;;;;;2.72;2.10;;;;;;;;;;8210590;28;20518;-59
2024/01/08 10:35:31;;;;;;;2.92;2.40;;;;;;;;;;8216880;28;20018;-59
2024/01/08 10:39:32;;;;;;;4.13;2.58;;;;;;;;;;8212721;28;20591;-59
2024/01/08 10:43:32;;;;;;;2.97;2.50;;;;;;;;;;8216940;28;20551;-60
2024/01/08 10:47:35;;;;;;;5.00;2.72;;;;;;;;;;8211938;28;20859;-59
2024/01/08 10:51:36;;;;;;;3.35;2.70;;;;;;;;;;8212307;28;20014;-58
2024/01/08 10:55:38;;;;;;;3.55;2.70;;;;;;;;;;8216290;28;20026;-57
2024/01/08 10:59:39;;;;;;;3.17;2.38;;;;;;;;;;8231372;28;20101;-59
2024/01/08 11:03:39;;;;;;;4.70;2.42;;;;;;;;;;8217767;28;20502;-58
2024/01/08 11:07:40;;;;;;;4.45;3.05;;;;;;;;;;8213100;28;20022;-58
2024/01/08 11:11:40;;;;;;;3.88;2.78;;;;;;;;;;8212111;28;20029;-58
2024/01/08 11:15:43;;;;;;;3.75;2.45;;;;;;;;;;8223310;28;20037;-58
2024/01/08 11:19:45;;;;;;;4.90;3.28;;;;;;;;;;8213219;28;20029;-58
2024/01/08 11:23:47;;;;;;;4.15;2.90;;;;;;;;;;8212553;28;20025;-57
2024/01/08 11:27:47;;;;;;;5.60;3.03;;;;;;;;;;8217548;28;20021;-58
2024/01/08 11:31:47;;;;;;;2.75;2.28;;;;;;;;;;8209444;28;20081;-58
2024/01/08 11:35:51;;;;;;;4.30;2.78;;;;;;;;;;8214488;28;20017;-57
2024/01/08 11:39:53;;;;;;;3.83;3.15;;;;;;;;;;8215260;28;20736;-57
2024/01/08 11:43:53;;;;;;;3.42;2.60;;;;;;;;;;8220052;28;20533;-59
2024/01/08 11:47:53;;;;;;;3.35;2.45;;;;;;;;;;8218229;28;20426;-57
2024/01/08 11:51:55;;;;;;;4.00;2.80;;;;;;;;;;8217875;28;20519;-59
2024/01/08 11:55:56;;;;;;;2.30;2.10;;;;;;;;;;8219728;28;20034;-57
2024/01/08 11:59:56;;;;;;;3.78;2.78;;;;;;;;;;8219048;28;20153;-59
2024/01/08 12:03:58;;;;;;;3.75;2.30;;;;;;;;;;8215844;28;20061;-57
2024/01/08 12:07:58;;;;;;;5.22;2.60;;;;;;;;;;8218973;28;20557;-58
2024/01/08 12:12:02;;;;;;;5.25;2.65;;;;;;;;;;8223443;28;20104;-58
2024/01/08 12:16:05;;;;;;;4.65;2.30;;;;;;;;;;8218800;28;20038;-58
2024/01/08 12:20:06;;;;;;;3.63;2.53;;;;;;;;;;8218138;28;20033;-57
2024/01/08 12:24:06;;;;;;;3.15;2.22;;;;;;;;;;8215625;28;20591;-57
2024/01/08 12:28:07;;;;;;;3.47;2.55;;;;;;;;;;8215062;28;20070;-59
2024/01/08 12:32:13;;;;;;;3.10;2.25;;;;;;;;;;8211733;28;20065;-58
2024/01/08 12:36:13;;;;;;;3.33;2.50;;;;;;;;;;8212574;28;20465;-55
2024/01/08 12:40:13;;;;;;;4.35;2.42;;;;;;;;;;8213511;28;20049;-56
2024/01/08 12:44:13;;;;;;;4.78;2.47;;;;;;;;;;8213339;28;20410;-57
2024/01/08 12:48:14;;;;;;;3.40;2.17;;;;;;;;;;8212046;28;20058;-58
2024/01/08 12:52:14;;;;;;;3.92;2.47;;;;;;;;;;8219625;28;20025;-58
2024/01/08 12:56:14;;;;;;;5.53;2.53;;;;;;;;;;8215686;28;20464;-58
2024/01/08 13:00:15;;;;;;;3.13;2.17;;;;;;;;;;8213492;28;20025;-57
2024/01/08 13:04:15;;;;;;;3.33;2.45;;;;;;;;;;8209215;28;20036;-59
2024/01/08 13:08:15;;;;;;;4.55;2.80;;;;;;;;;;8222691;28;20022;-58
2024/01/08 13:12:17;;;;;;;5.25;2.50;;;;;;;;;;8217793;28;20022;-59
2024/01/08 13:16:18;;;;;;;3.70;2.72;;;;;;;;;;8219574;28;20045;-58
2024/01/08 13:20:18;;;;;;;3.28;2.55;;;;;;;;;;8219357;28;20026;-58
2024/01/08 13:24:18;;;;;;;5.03;2.83;;;;;;;;;;8218261;28;20627;-57
2024/01/08 13:28:18;;;;;;;3.37;2.70;;;;;;;;;;8210806;28;20501;-58
2024/01/08 13:32:19;;;;;;;3.45;2.17;;;;;;;;;;8213893;28;20311;-59
2024/01/08 13:36:19;;;;;;;4.65;3.20;;;;;;;;;;8219988;28;20032;-59
2024/01/08 13:40:21;;;;;;;3.95;2.50;;;;;;;;;;8218542;28;20231;-58
2024/01/08 13:44:21;;;;;;;3.72;3.03;;;;;;;;;;8211819;28;20062;-59
2024/01/08 13:48:22;;;;;;;3.72;2.67;;;;;;;;;;8207923;28;20047;-58
2024/01/08 13:52:22;;;;;;;5.30;3.00;;;;;;;;;;8205265;28;20459;-59
2024/01/08 13:56:23;;;;;;;4.20;3.00;;;;;;;;;;8207915;28;20879;-60
2024/01/08 14:00:23;;;;;;;3.90;2.92;;;;;;;;;;8211354;28;21472;-59
2024/01/08 14:04:23;;;;;;;5.50;3.33;;;;;;;;;;8208928;28;20132;-58
2024/01/08 14:08:24;;;;;;;5.32;3.10;;;;;;;;;;8209236;28;20665;-61
2024/01/08 14:12:24;;;;;;;3.70;2.58;;;;;;;;;;8209526;28;20505;-57
2024/01/08 14:16:25;;;;;;;4.30;2.97;;;;;;;;;;8223234;28;20061;-60
2024/01/08 14:20:25;;;;;;;2.90;2.60;;;;;;;;;;8218531;28;20855;-59
2024/01/08 14:24:25;;;;;;;5.73;3.13;;;;;;;;;;8210908;28;20531;-58
2024/01/08 14:28:27;;;;;;;4.15;2.83;;;;;;;;;;8217525;28;20710;-59
2024/01/08 14:32:27;;;;;;;6.38;3.28;;;;;;;;;;8208519;28;20023;-59
2024/01/08 14:36:28;;;;;;;3.60;2.80;;;;;;;;;;8216655;28;21077;-59
2024/01/08 14:40:28;;;;;;;5.80;3.20;;;;;;;;;;8221145;28;20080;-58
2024/01/08 14:44:29;;;;;;;5.75;3.25;;;;;;;;;;8219267;28;20049;-58
2024/01/08 14:48:29;;;;;;;4.90;3.25;;;;;;;;;;8214731;28;20112;-58
2024/01/08 14:52:29;;;;;;;5.38;3.53;;;;;;;;;;8216014;28;20068;-57
2024/01/08 14:56:30;;;;;;;5.43;3.45;;;;;;;;;;8219107;28;20034;-58
2024/01/08 15:00:31;;;;;;;4.78;3.50;;;;;;;;;;8218614;28;20065;-58
2024/01/08 15:04:31;;;;;;;6.20;3.30;;;;;;;;;;8217678;28;20782;-59
2024/01/08 15:08:31;;;;;;;5.10;3.67;;;;;;;;;;8217763;28;20478;-59
2024/01/08 15:12:32;;;;;;;6.72;3.58;;;;;;;;;;8220129;28;20107;-58
2024/01/08 15:16:32;;;;;;;6.18;3.17;;;;;;;;;;8213596;28;20740;-58
2024/01/08 15:20:32;;;;;;;5.28;3.35;;;;;;;;;;8231046;28;20702;-58
2024/01/08 15:24:36;;;;;;;5.82;3.50;;;;;;;;;;8235529;28;20264;-58
2024/01/08 15:28:36;;;;;;;6.03;3.33;;;;;;;;;;8218797;28;20057;-56
2024/01/08 15:32:36;;;;;;;12.57;4.20;;;;;;;;;;8217432;28;20065;-57
2024/01/08 15:36:38;;;;;;;8.05;3.58;;;;;;;;;;8220283;28;20030;-57
2024/01/08 15:40:38;;;;;;;8.60;4.32;;;;;;;;;;8223748;28;20100;-59
2024/01/08 15:44:38;;;;;;;7.10;4.47;;;;;;;;;;8224757;28;20105;-57
2024/01/08 15:48:38;;;;;;;11.30;4.35;;;;;;;;;;8219525;28;20160;-58
2024/01/08 15:52:38;;;;;;;5.53;3.65;;;;;;;;;;8218537;28;20730;-59
2024/01/08 15:56:41;;;;;;;7.50;4.60;;;;;;;;;;8220941;28;20081;-59
2024/01/08 16:00:41;;;;;;;7.95;4.38;;;;;;;;;;8221438;28;20034;-57
2024/01/08 16:04:41;;;;;;;8.07;4.38;;;;;;;;;;8218095;28;20030;-58
2024/01/08 16:08:42;;;;;;;8.55;4.43;;;;;;;;;;8221540;28;20032;-59
2024/01/08 16:12:42;;;;;;;8.48;4.53;;;;;;;;;;8221441;28;20438;-58
2024/01/08 16:16:42;;;;;;;7.55;4.65;;;;;;;;;;8222895;28;20125;-59
2024/01/08 16:20:43;;;;;;;8.07;4.78;;;;;;;;;;8220461;28;20184;-59
2024/01/08 16:24:43;;;;;;;9.68;4.60;;;;;;;;;;8220113;28;20026;-61
2024/01/08 16:28:43;;;;;;;8.27;4.63;;;;;;;;;;8214293;28;20026;-58
2024/01/08 16:32:43;;;;;;;10.75;5.57;;;;;;;;;;8215930;28;20037;-58
2024/01/08 16:36:43;;;;;;;8.38;5.03;;;;;;;;;;8219028;28;20441;-58
2024/01/08 16:40:44;;;;;;;7.93;5.30;;;;;;;;;;8212549;28;20026;-58
2024/01/08 16:44:44;;;;;;;8.33;5.50;;;;;;;;;;8213000;28;20896;-58
2024/01/08 16:48:44;;;;;;;8.73;4.95;;;;;;;;;;8210744;28;20289;-59
2024/01/08 16:52:44;;;;;;;8.40;5.18;;;;;;;;;;8208774;28;20835;-57
2024/01/08 16:56:44;;;;;;;9.90;5.65;;;;;;;;;;8208678;28;20589;-58
2024/01/08 17:00:44;;;;;;;12.57;5.88;;;;;;;;;;8207240;28;20168;-59
2024/01/08 17:04:45;;;;;;;7.95;5.47;;;;;;;;;;8208836;28;20105;-59
2024/01/08 17:08:45;;;;;;;9.32;5.70;;;;;;;;;;8208566;28;20025;-59
2024/01/08 17:12:45;;;;;;;10.38;5.93;;;;;;;;;;8211443;28;20025;-58
2024/01/08 17:16:45;;;;;;;9.05;5.47;;;;;;;;;;8211146;28;20065;-58
2024/01/08 17:20:46;;;;;;;11.43;5.93;;;;;;;;;;8209134;28;20065;-58
2024/01/08 17:24:46;;;;;;;9.50;5.90;;;;;;;;;;8208221;28;20026;-58
2024/01/08 17:28:46;;;;;;;9.43;5.80;;;;;;;;;;8209390;28;20060;-58
2024/01/08 17:32:46;;;;;;;11.10;5.78;;;;;;;;;;8205010;28;20031;-58
2024/01/08 17:36:47;;;;;;;9.43;5.28;;;;;;;;;;8205784;28;20058;-58
2024/01/08 17:40:47;;;;;;;11.75;6.72;;;;;;;;;;8209819;28;20760;-59
2024/01/08 17:44:49;;;;;;;10.63;5.95;;;;;;;;;;8207288;28;20034;-60
2024/01/08 17:48:52;;;;;;;12.00;6.72;;;;;;;;;;8209356;28;20451;-60
2024/01/08 17:52:53;;;;;;;10.60;6.00;;;;;;;;;;8209404;28;21977;-60
2024/01/08 17:56:56;;;;;;;13.05;6.40;;;;;;;;;;8206632;28;20059;-58
2024/01/08 18:00:56;;;;;;;9.73;6.20;;;;;;;;;;8205695;28;20406;-58
2024/01/08 18:04:57;;;;;;;9.65;5.97;;;;;;;;;;8205869;28;20106;-59
2024/01/08 18:08:57;;;;;;;9.48;5.47;;;;;;;;;;8206668;28;20040;-59
2024/01/08 18:12:57;;;;;;;9.40;5.80;;;;;;;;;;8208052;28;20053;-59
2024/01/08 18:16:57;;;;;;;13.90;6.75;;;;;;;;;;8205687;28;20089;-59
2024/01/08 18:20:57;;;;;;;10.45;6.03;;;;;;;;;;8210363;28;20399;-58
2024/01/08 18:24:58;;;;;;;10.82;6.38;;;;;;;;;;8207204;28;20073;-58
2024/01/08 18:28:58;;;;;;;7.97;5.32;;;;;;;;;;8205265;28;20038;-59
2024/01/08 18:32:59;;;;;;;13.02;6.03;;;;;;;;;;8203699;28;20546;-60
2024/01/08 18:36:59;;;;;;;10.70;6.00;;;;;;;;;;8205090;28;20033;-58
2024/01/08 18:40:59;;;;;;;10.52;6.15;;;;;;;;;;8204973;28;20558;-60
2024/01/08 18:44:59;;;;;;;10.57;5.82;;;;;;;;;;8204587;28;20029;-60
2024/01/08 18:48:59;;;;;;;10.50;6.53;;;;;;;;;;8206839;28;20706;-59
2024/01/08 18:53:00;;;;;;;11.57;6.18;;;;;;;;;;8206462;28;20069;-59
2024/01/08 18:57:00;;;;;;;9.93;5.60;;;;;;;;;;8207373;28;20042;-58
2024/01/08 19:01:00;;;;;;;10.00;5.75;;;;;;;;;;8206174;28;20592;-58
2024/01/08 19:05:00;;;;;;;10.77;5.95;;;;;;;;;;8209376;28;20628;-58
2024/01/08 19:09:00;;;;;;;11.40;6.18;;;;;;;;;;8218441;28;20105;-59
2024/01/08 19:13:01;;;;;;;20.95;6.03;;;;;;;;;;8217982;28;20585;-58
2024/01/08 19:17:01;;;;;;;10.35;6.10;;;;;;;;;;8215360;28;20042;-58
2024/01/08 19:21:01;;;;;;;11.70;6.43;;;;;;;;;;8205173;28;20106;-57
2024/01/08 19:25:01;;;;;;;10.52;5.97;;;;;;;;;;8208909;28;20026;-56
2024/01/08 19:29:02;;;;;;;12.75;6.28;;;;;;;;;;8206462;28;20104;-58
2024/01/08 19:33:02;;;;;;;11.07;5.93;;;;;;;;;;8200501;28;20116;-59
2024/01/08 19:37:02;;;;;;;12.15;6.30;;;;;;;;;;8200821;28;21720;-59
2024/01/08 19:41:02;;;;;;;8.88;5.68;;;;;;;;;;8207823;28;20499;-58
2024/01/08 19:45:03;;;;;;;14.05;6.32;;;;;;;;;;8215021;28;20057;-59
2024/01/08 19:49:03;;;;;;;9.75;5.68;;;;;;;;;;8217172;28;20845;-58
2024/01/08 19:53:03;;;;;;;9.18;5.57;;;;;;;;;;8216232;28;20049;-58
2024/01/08 19:57:07;;;;;;;11.18;5.57;;;;;;;;;;8205748;28;20038;-57
2024/01/08 20:01:07;;;;;;;9.00;5.70;;;;;;;;;;8205740;28;20403;-58
2024/01/08 20:05:08;;;;;;;10.63;5.95;;;;;;;;;;8209134;28;20030;-59
2024/01/08 20:09:08;;;;;;;8.45;5.55;;;;;;;;;;8207922;28;20314;-59
2024/01/08 20:13:09;;;;;;;10.52;6.05;;;;;;;;;;8210020;28;20474;-58
2024/01/08 20:17:09;;;;;;;12.27;6.43;;;;;;;;;;8221015;28;21429;-59
2024/01/08 20:21:09;;;;;;;13.90;6.07;;;;;;;;;;8237419;28;21487;-59
2024/01/08 20:25:12;;;;;;;12.95;6.72;;;;;;;;;;8224340;28;20018;-60
2024/01/08 20:29:12;;;;;;;9.82;5.65;;;;;;;;;;8211350;28;20286;-57
2024/01/08 20:33:13;;;;;;;9.90;6.25;;;;;;;;;;8218876;28;20034;-58
2024/01/08 20:37:13;;;;;;;9.48;5.50;;;;;;;;;;8214965;28;20068;-59
2024/01/08 20:41:14;;;;;;;10.82;6.53;;;;;;;;;;8209674;28;20026;-58
2024/01/08 20:45:14;;;;;;;12.30;6.15;;;;;;;;;;8213295;28;20281;-59
2024/01/08 20:49:14;;;;;;;11.55;5.35;;;;;;;;;;8218359;28;20109;-59
2024/01/08 20:53:14;;;;;;;11.80;5.78;;;;;;;;;;8221920;28;20033;-58
2024/01/08 20:57:15;;;;;;;12.07;6.20;;;;;;;;;;8214870;28;20160;-60
2024/01/08 21:01:15;;;;;;;10.80;5.97;;;;;;;;;;8218834;28;20392;-58
2024/01/08 21:05:15;;;;;;;11.18;5.95;;;;;;;;;;8216150;28;20030;-58
2024/01/08 21:09:16;;;;;;;9.88;5.78;;;;;;;;;;8214064;28;20026;-58
2024/01/08 21:13:16;;;;;;;12.10;6.65;;;;;;;;;;8220154;28;20586;-57
2024/01/08 21:17:16;;;;;;;10.43;6.20;;;;;;;;;;8214199;28;20683;-58
2024/01/08 21:21:16;;;;;;;13.68;6.55;;;;;;;;;;8216413;28;20724;-58
2024/01/08 21:25:16;;;;;;;10.45;5.78;;;;;;;;;;8214066;28;20269;-58
2024/01/08 21:29:17;;;;;;;10.68;6.03;;;;;;;;;;8212047;28;20528;-58
2024/01/08 21:33:18;;;;;;;10.07;5.68;;;;;;;;;;8211822;28;20152;-57
2024/01/08 21:37:18;;;;;;;11.57;5.95;;;;;;;;;;8211800;28;20624;-57
2024/01/08 21:41:18;;;;;;;9.23;5.40;;;;;;;;;;8215870;28;20434;-57
2024/01/08 21:45:19;;;;;;;11.10;5.53;;;;;;;;;;8210670;28;20030;-57
2024/01/08 21:49:20;;;;;;;9.68;5.60;;;;;;;;;;8227184;28;20040;-59
2024/01/08 21:53:20;;;;;;;9.27;5.47;;;;;;;;;;8228235;28;20289;-58
2024/01/08 21:57:20;;;;;;;10.93;6.05;;;;;;;;;;8229820;28;20026;-58
2024/01/08 22:01:21;;;;;;;10.82;6.20;;;;;;;;;;8228414;28;20048;-59
2024/01/08 22:05:21;;;;;;;13.55;6.70;;;;;;;;;;8230679;28;20113;-59
2024/01/08 22:09:21;;;;;;;11.40;6.15;;;;;;;;;;8222539;28;20336;-59
2024/01/08 22:13:23;;;;;;;10.45;6.07;;;;;;;;;;8232852;28;20281;-59
2024/01/08 22:17:24;;;;;;;10.32;6.22;;;;;;;;;;8228707;28;20042;-59
2024/01/08 22:21:24;;;;;;;10.73;6.45;;;;;;;;;;8228167;28;20045;-59
2024/01/08 22:25:24;;;;;;;10.07;5.72;;;;;;;;;;8227764;28;20029;-59
2024/01/08 22:29:24;;;;;;;12.50;6.32;;;;;;;;;;8224809;28;20156;-59
2024/01/08 22:33:24;;;;;;;9.88;5.60;;;;;;;;;;8220112;28;20029;-59
2024/01/08 22:37:25;;;;;;;12.40;6.00;;;;;;;;;;8228294;28;20111;-58
2024/01/08 22:41:25;;;;;;;10.07;6.45;;;;;;;;;;8208598;28;20030;-58
2024/01/08 22:45:25;;;;;;;10.35;6.63;;;;;;;;;;8210280;28;20129;-57
2024/01/08 22:49:25;;;;;;;10.73;6.47;;;;;;;;;;8214828;28;20490;-59
2024/01/08 22:53:25;;;;;;;16.48;6.25;;;;;;;;;;8214540;28;20357;-59
2024/01/08 22:57:25;;;;;;;10.60;5.97;;;;;;;;;;8218429;28;20026;-57
2024/01/08 23:01:26;;;;;;;11.10;6.40;;;;;;;;;;8209047;28;20038;-57
2024/01/08 23:05:26;;;;;;;9.18;5.95;;;;;;;;;;8212095;28;20077;-58
2024/01/08 23:09:26;;;;;;;13.15;6.47;;;;;;;;;;8213635;28;20037;-58
2024/01/08 23:13:26;;;;;;;9.60;5.70;;;;;;;;;;8213572;28;20022;-57
2024/01/08 23:17:26;;;;;;;10.57;5.82;;;;;;;;;;8213842;28;20284;-58
2024/01/08 23:21:26;;;;;;;11.65;6.38;;;;;;;;;;8215130;28;20021;-58
2024/01/08 23:25:27;;;;;;;11.77;6.10;;;;;;;;;;8207259;28;20039;-57
2024/01/08 23:29:27;;;;;;;11.57;6.07;;;;;;;;;;8211090;28;20026;-57
2024/01/08 23:33:27;;;;;;;9.93;6.13;;;;;;;;;;8213089;28;20039;-58
2024/01/08 23:37:28;;;;;;;9.95;6.07;;;;;;;;;;8209739;28;20026;-58
2024/01/08 23:41:28;;;;;;;10.88;6.13;;;;;;;;;;8218833;28;20069;-58
2024/01/08 23:45:28;;;;;;;11.68;6.53;;;;;;;;;;8214444;28;21557;-57
2024/01/08 23:49:28;;;;;;;11.80;6.03;;;;;;;;;;8213526;28;20038;-59
2024/01/08 23:53:28;;;;;;;10.82;6.47;;;;;;;;;;8213593;28;20446;-59
2024/01/08 23:57:29;;;;;;;10.65;6.18;;;;;;;;;;8210861;28;20026;-58
